Time;durP1;ratioP1;P1;durP2;ratioP2;P2;SDS_P1;SDS_P2;PMS_P1;PMS_P2;Temp;Humidity;BMP_temperature;BMP_pressure;BME280_temperature;BME280_humidity;BME280_pressure;Samples;Min_cycle;Max_cycle;Signal;HPM_P1;HPM_P2
2022/10/21 00:01:43;;;;;;;8.05;4.50;;;21.80;50.60;;;;;;5033859;28;20039;-63
2022/10/21 00:04:09;;;;;;;7.63;3.88;;;21.90;50.80;;;;;;5036184;28;20038;-63
2022/10/21 00:06:35;;;;;;;6.53;4.10;;;21.80;50.60;;;;;;5033287;28;20400;-63
2022/10/21 00:09:02;;;;;;;8.80;4.45;;;21.90;50.80;;;;;;5032197;28;20060;-61
2022/10/21 00:11:27;;;;;;;6.57;3.97;;;21.80;50.60;;;;;;5044212;28;20087;-62
2022/10/21 00:13:53;;;;;;;6.20;4.13;;;21.80;50.60;;;;;;5041706;28;20033;-64
2022/10/21 00:16:19;;;;;;;7.20;4.28;;;21.80;50.60;;;;;;5030613;28;20045;-62
2022/10/21 00:18:47;;;;;;;7.25;4.18;;;21.70;50.60;;;;;;5033047;28;20072;-64
2022/10/21 00:21:19;;;;;;;7.97;4.35;;;21.80;50.60;;;;;;5034284;28;20057;-64
2022/10/21 00:23:46;;;;;;;7.72;4.18;;;21.70;50.70;;;;;;5032702;28;20041;-65
2022/10/21 00:26:13;;;;;;;11.30;4.93;;;21.70;50.70;;;;;;5034196;28;20053;-63
2022/10/21 00:28:40;;;;;;;13.00;5.97;;;21.70;50.70;;;;;;5031229;28;20037;-62
2022/10/21 00:31:08;;;;;;;12.13;4.72;;;21.70;50.70;;;;;;5029544;28;20045;-63
2022/10/21 00:33:34;;;;;;;6.25;4.25;;;21.70;51.10;;;;;;5038095;28;20059;-64
2022/10/21 00:36:01;;;;;;;8.63;4.82;;;21.70;51.20;;;;;;5018789;28;20102;-62
2022/10/21 00:38:28;;;;;;;12.77;5.95;;;21.60;51.00;;;;;;5030882;28;20430;-63
2022/10/21 00:40:55;;;;;;;14.82;7.40;;;21.70;51.10;;;;;;5026386;28;20112;-63
2022/10/21 00:43:21;;;;;;;20.02;8.35;;;21.60;51.00;;;;;;5031249;28;20048;-62
2022/10/21 00:45:51;;;;;;;18.45;8.20;;;21.60;50.90;;;;;;5033773;28;20066;-63
2022/10/21 00:48:40;;;;;;;11.07;6.93;;;21.70;51.00;;;;;;5028834;28;20662;-63
2022/10/21 00:51:11;;;;;;;15.63;6.97;;;21.60;50.90;;;;;;5025023;28;20100;-62
2022/10/21 00:53:41;;;;;;;13.40;5.68;;;21.50;51.20;;;;;;5031742;28;20421;-64
2022/10/21 00:56:24;;;;;;;14.25;6.05;;;21.70;51.60;;;;;;5032270;28;20041;-63
2022/10/21 00:58:52;;;;;;;12.50;6.38;;;21.50;51.60;;;;;;5019545;28;20048;-63
2022/10/21 01:01:18;;;;;;;13.90;6.72;;;21.50;51.90;;;;;;5030348;28;20037;-63
2022/10/21 01:03:44;;;;;;;13.73;6.93;;;21.50;52.10;;;;;;5034062;28;20041;-64
2022/10/21 01:06:12;;;;;;;13.20;5.85;;;21.40;52.20;;;;;;5032857;28;20104;-64
2022/10/21 01:08:38;;;;;;;10.25;6.15;;;21.30;52.50;;;;;;5031839;28;20057;-63
2022/10/21 01:11:09;;;;;;;7.93;5.53;;;21.30;52.70;;;;;;5030748;28;20528;-64
2022/10/21 01:14:05;;;;;;;9.63;5.32;;;21.30;52.90;;;;;;5032698;28;20039;-64
2022/10/21 01:16:51;;;;;;;9.77;5.00;;;21.30;53.20;;;;;;5022168;28;20042;-64
2022/10/21 01:19:20;;;;;;;9.02;5.00;;;21.20;53.20;;;;;;5031297;28;20087;-64
2022/10/21 01:21:54;;;;;;;9.10;5.53;;;21.30;53.60;;;;;;5033210;28;20037;-62
2022/10/21 01:24:38;;;;;;;8.52;5.32;;;21.20;53.70;;;;;;5030647;28;20050;-63
2022/10/21 01:27:08;;;;;;;7.18;4.95;;;21.10;53.90;;;;;;5016734;28;20025;-62
2022/10/21 01:29:55;;;;;;;12.25;5.60;;;21.20;54.30;;;;;;5030233;28;20120;-64
2022/10/21 01:32:30;;;;;;;8.60;5.07;;;21.00;54.40;;;;;;5029527;28;20124;-64
2022/10/21 01:35:14;;;;;;;7.95;4.88;;;21.10;54.60;;;;;;5031033;28;20048;-63
2022/10/21 01:38:02;;;;;;;8.95;5.25;;;21.10;54.90;;;;;;5030546;28;20057;-63
2022/10/21 01:40:53;;;;;;;8.40;5.03;;;21.00;54.90;;;;;;5021319;28;20244;-63
2022/10/21 01:43:31;;;;;;;8.13;5.05;;;20.90;55.00;;;;;;5023017;28;20129;-62
2022/10/21 01:46:11;;;;;;;8.45;5.10;;;20.90;55.10;;;;;;5029369;28;20160;-63
2022/10/21 01:48:43;;;;;;;7.32;4.53;;;21.00;55.30;;;;;;5030436;28;20048;-64
2022/10/21 01:51:11;;;;;;;8.63;4.73;;;20.90;55.50;;;;;;5031865;28;20130;-63
2022/10/21 01:53:43;;;;;;;7.75;4.95;;;20.90;55.70;;;;;;5031962;28;20120;-64
2022/10/21 01:56:11;;;;;;;9.70;4.95;;;20.90;55.50;;;;;;5032280;28;20037;-64
2022/10/21 01:58:40;;;;;;;8.77;5.07;;;21.00;55.40;;;;;;5026857;28;20088;-62
2022/10/21 02:01:07;;;;;;;8.93;5.15;;;21.00;55.30;;;;;;5034018;28;20053;-63
2022/10/21 02:03:39;;;;;;;8.25;5.18;;;21.00;55.30;;;;;;5032074;28;20056;-63
2022/10/21 02:06:06;;;;;;;10.40;4.68;;;21.00;55.30;;;;;;5028940;28;20103;-63
2022/10/21 02:08:32;;;;;;;9.45;5.50;;;21.10;55.40;;;;;;5031735;28;20044;-64
2022/10/21 02:11:02;;;;;;;10.07;5.28;;;21.00;55.30;;;;;;5032707;28;20047;-63
2022/10/21 02:13:37;;;;;;;9.43;5.00;;;21.00;54.80;;;;;;5031512;28;20088;-63
2022/10/21 02:16:07;;;;;;;7.55;4.60;;;21.10;54.40;;;;;;5035657;28;20037;-63
2022/10/21 02:18:34;;;;;;;6.22;4.25;;;21.10;54.10;;;;;;5030935;28;20466;-63
2022/10/21 02:21:09;;;;;;;7.55;4.68;;;21.10;53.80;;;;;;5030217;28;20122;-64
2022/10/21 02:23:38;;;;;;;6.13;4.18;;;21.10;53.40;;;;;;5031349;28;20390;-61
2022/10/21 02:26:05;;;;;;;12.70;5.20;;;21.20;53.00;;;;;;5032057;28;20118;-64
2022/10/21 02:28:32;;;;;;;6.70;4.30;;;21.10;52.60;;;;;;5029482;28;20052;-63
2022/10/21 02:31:00;;;;;;;7.63;4.68;;;21.20;52.30;;;;;;5033361;28;20033;-64
2022/10/21 02:33:44;;;;;;;7.65;4.50;;;21.30;52.20;;;;;;5034199;28;20061;-62
2022/10/21 02:36:20;;;;;;;8.25;3.65;;;21.20;51.90;;;;;;5028303;28;20045;-64
2022/10/21 02:38:52;;;;;;;7.50;4.30;;;21.20;51.70;;;;;;5029902;28;20053;-63
2022/10/21 02:41:22;;;;;;;11.43;5.47;;;21.30;51.50;;;;;;5028923;28;20021;-63
2022/10/21 02:43:59;;;;;;;8.52;4.93;;;21.30;51.20;;;;;;5028098;28;20501;-64
2022/10/21 02:46:26;;;;;;;5.82;4.65;;;21.30;51.00;;;;;;5023967;28;20026;-64
2022/10/21 02:48:52;;;;;;;6.97;4.80;;;21.40;50.90;;;;;;5035678;28;20394;-62
2022/10/21 02:51:18;;;;;;;5.05;4.05;;;21.40;50.60;;;;;;5041883;28;20041;-63
2022/10/21 02:53:44;;;;;;;7.07;4.45;;;21.50;50.60;;;;;;5028520;28;20040;-64
2022/10/21 02:56:10;;;;;;;11.80;4.43;;;21.50;50.60;;;;;;5009826;28;20052;-64
2022/10/21 02:58:37;;;;;;;5.75;3.83;;;21.50;51.00;;;;;;5029000;28;20033;-64
2022/10/21 03:01:03;;;;;;;5.95;4.13;;;21.50;51.20;;;;;;5028581;28;20040;-63
2022/10/21 03:03:29;;;;;;;8.55;4.05;;;21.50;50.80;;;;;;5034314;28;20528;-63
2022/10/21 03:05:56;;;;;;;6.03;3.60;;;21.50;50.60;;;;;;5030664;28;20033;-63
2022/10/21 03:08:22;;;;;;;6.40;3.83;;;21.50;50.50;;;;;;4991837;28;20081;-64
2022/10/21 03:10:49;;;;;;;7.60;4.18;;;21.50;50.30;;;;;;5005817;28;20072;-62
2022/10/21 03:13:15;;;;;;;6.30;3.90;;;21.50;50.30;;;;;;5030181;28;20049;-63
2022/10/21 03:15:41;;;;;;;6.18;4.70;;;21.40;50.00;;;;;;5013381;28;20510;-63
2022/10/21 03:18:07;;;;;;;6.93;4.05;;;21.60;49.80;;;;;;4995267;28;20049;-64
2022/10/21 03:20:33;;;;;;;10.60;4.75;;;21.50;49.70;;;;;;5031556;28;20029;-62
2022/10/21 03:22:59;;;;;;;8.18;4.38;;;21.60;49.60;;;;;;4989498;28;20112;-62
2022/10/21 03:25:25;;;;;;;7.32;4.65;;;21.60;49.50;;;;;;5030122;28;20032;-61
2022/10/21 03:27:51;;;;;;;6.03;4.13;;;21.60;49.40;;;;;;5029838;28;20386;-63
2022/10/21 03:30:17;;;;;;;8.68;4.60;;;21.60;49.30;;;;;;5009584;28;20496;-63
2022/10/21 03:32:43;;;;;;;6.72;4.13;;;21.70;49.30;;;;;;5031805;28;20029;-63
2022/10/21 03:35:09;;;;;;;10.45;4.30;;;21.70;49.00;;;;;;5047212;28;20111;-62
2022/10/21 03:37:35;;;;;;;6.60;3.95;;;21.70;48.80;;;;;;5033934;28;20128;-62
2022/10/21 03:40:02;;;;;;;9.13;4.82;;;21.90;48.80;;;;;;5032556;28;20037;-64
2022/10/21 03:42:28;;;;;;;8.98;4.25;;;22.00;48.50;;;;;;5037616;28;20124;-63
2022/10/21 03:44:56;;;;;;;10.43;4.63;;;22.00;48.50;;;;;;5036959;28;20029;-63
2022/10/21 03:47:22;;;;;;;10.05;5.55;;;21.90;48.80;;;;;;5039970;28;20066;-64
2022/10/21 03:49:48;;;;;;;7.57;4.32;;;21.90;49.20;;;;;;5019039;28;20119;-64
2022/10/21 03:52:14;;;;;;;8.27;4.80;;;21.90;49.30;;;;;;5036451;28;20087;-62
2022/10/21 03:54:40;;;;;;;8.65;5.07;;;21.90;49.20;;;;;;5036267;28;20021;-64
2022/10/21 03:57:06;;;;;;;5.57;4.47;;;21.90;49.10;;;;;;5034388;28;20053;-63
2022/10/21 03:59:32;;;;;;;8.88;5.22;;;21.80;48.90;;;;;;5030291;28;20077;-63
2022/10/21 04:01:58;;;;;;;6.82;4.53;;;21.80;48.90;;;;;;5020346;28;20064;-64
2022/10/21 04:04:24;;;;;;;8.32;4.97;;;21.80;48.80;;;;;;5037300;28;20438;-62
2022/10/21 04:06:50;;;;;;;9.52;4.53;;;21.80;48.70;;;;;;5036251;28;20054;-62
2022/10/21 04:09:16;;;;;;;10.60;5.50;;;21.80;48.50;;;;;;5034939;28;20474;-63
2022/10/21 04:11:42;;;;;;;7.25;5.05;;;21.80;48.60;;;;;;5016806;28;20049;-64
2022/10/21 04:14:08;;;;;;;7.82;5.00;;;21.80;48.60;;;;;;5036767;28;20037;-62
2022/10/21 04:16:34;;;;;;;9.05;5.53;;;21.70;48.50;;;;;;5040100;28;20032;-63
2022/10/21 04:19:00;;;;;;;7.68;4.95;;;21.70;48.60;;;;;;5040169;28;20032;-62
2022/10/21 04:21:26;;;;;;;11.23;5.95;;;21.70;48.60;;;;;;5016158;28;20033;-61
2022/10/21 04:23:52;;;;;;;10.98;4.93;;;21.70;48.50;;;;;;5035497;28;20025;-60
2022/10/21 04:26:18;;;;;;;9.13;5.38;;;21.60;48.40;;;;;;5036072;28;20041;-61
2022/10/21 04:28:44;;;;;;;10.50;5.25;;;21.60;48.30;;;;;;5032225;28;20045;-60
2022/10/21 04:31:10;;;;;;;8.15;4.38;;;21.80;48.00;;;;;;4984294;28;20063;-64
2022/10/21 04:33:36;;;;;;;8.02;4.82;;;21.70;47.90;;;;;;5024233;28;20033;-62
2022/10/21 04:36:02;;;;;;;9.73;5.47;;;21.70;47.90;;;;;;5036014;28;20033;-64
2022/10/21 04:38:29;;;;;;;7.35;5.18;;;22.00;48.10;;;;;;5031768;28;20069;-63
2022/10/21 04:41:00;;;;;;;7.35;4.80;;;22.10;48.00;;;;;;5030223;28;20052;-63
2022/10/21 04:43:27;;;;;;;6.47;3.90;;;22.20;47.90;;;;;;5009004;28;20033;-64
2022/10/21 04:45:53;;;;;;;4.25;2.58;;;22.30;44.20;;;;;;4972845;28;20780;-62
2022/10/21 04:48:20;;;;;;;4.20;2.88;;;22.40;42.50;;;;;;4975451;28;20475;-59
2022/10/21 04:50:51;;;;;;;3.75;2.33;;;22.50;42.90;;;;;;4986830;28;20129;-63
2022/10/21 04:53:17;;;;;;;11.02;3.28;;;22.40;41.90;;;;;;4990437;28;20038;-64
2022/10/21 04:55:43;;;;;;;3.03;2.70;;;22.50;41.30;;;;;;4958948;28;20035;-64
2022/10/21 04:58:09;;;;;;;6.43;2.47;;;22.50;43.60;;;;;;4974274;28;20573;-60
2022/10/21 05:00:35;;;;;;;5.13;3.13;;;22.50;44.40;;;;;;4988368;28;20519;-63
2022/10/21 05:03:02;;;;;;;6.90;2.95;;;22.70;45.40;;;;;;4978023;28;20049;-64
2022/10/21 05:05:28;;;;;;;4.82;2.78;;;22.60;44.00;;;;;;4987037;28;20033;-63
2022/10/21 05:07:54;;;;;;;9.25;5.32;;;22.80;45.00;;;;;;4989360;28;20205;-64
2022/10/21 05:10:21;;;;;;;11.75;5.63;;;22.90;55.10;;;;;;4982913;28;20181;-61
2022/10/21 05:12:47;;;;;;;12.40;6.45;;;22.90;53.60;;;;;;4971978;28;20126;-63
2022/10/21 05:15:13;;;;;;;12.38;5.65;;;23.20;53.20;;;;;;4971693;28;20041;-61
2022/10/21 05:17:39;;;;;;;9.13;5.03;;;23.20;53.30;;;;;;4989235;28;20586;-56
2022/10/21 05:20:05;;;;;;;8.27;5.28;;;23.20;53.40;;;;;;4974818;28;20089;-63
2022/10/21 05:22:32;;;;;;;10.85;5.35;;;23.30;53.70;;;;;;4994788;28;20431;-62
2022/10/21 05:24:57;;;;;;;12.73;5.63;;;23.40;53.80;;;;;;5013320;28;20069;-58
2022/10/21 05:27:23;;;;;;;10.25;6.22;;;23.40;54.00;;;;;;5022266;28;20081;-61
2022/10/21 05:29:50;;;;;;;13.52;6.60;;;23.50;54.20;;;;;;5031341;28;20068;-61
2022/10/21 05:32:15;;;;;;;13.88;6.05;;;23.60;54.40;;;;;;5035026;28;20033;-64
2022/10/21 05:34:41;;;;;;;11.20;6.22;;;23.50;54.80;;;;;;5032670;28;20029;-63
2022/10/21 05:37:07;;;;;;;14.48;6.18;;;23.40;55.40;;;;;;5033121;28;20083;-60
2022/10/21 05:39:33;;;;;;;13.25;6.65;;;23.20;57.40;;;;;;5026767;28;20022;-60
2022/10/21 05:41:59;;;;;;;14.13;7.43;;;23.20;58.90;;;;;;5027166;28;20041;-64
2022/10/21 05:44:25;;;;;;;18.25;7.57;;;23.10;59.90;;;;;;5033051;28;20083;-64
2022/10/21 05:46:51;;;;;;;20.73;8.13;;;23.00;59.10;;;;;;5033811;28;20033;-63
2022/10/21 05:49:17;;;;;;;17.65;8.20;;;22.90;59.20;;;;;;5032686;28;20042;-64
2022/10/21 05:51:44;;;;;;;14.80;8.82;;;23.10;59.90;;;;;;5032401;28;20037;-64
2022/10/21 05:54:10;;;;;;;18.77;8.20;;;23.00;59.40;;;;;;5032855;28;20037;-63
2022/10/21 05:56:36;;;;;;;16.92;8.68;;;22.90;59.20;;;;;;5013267;28;20049;-60
2022/10/21 05:59:02;;;;;;;17.13;7.72;;;22.90;59.70;;;;;;5030582;28;20041;-66
2022/10/21 06:01:28;;;;;;;22.48;8.13;;;22.80;60.00;;;;;;5027360;28;20465;-66
2022/10/21 06:03:54;;;;;;;16.48;8.32;;;22.70;60.30;;;;;;5027676;28;20040;-66
2022/10/21 06:06:20;;;;;;;11.27;7.63;;;22.70;60.40;;;;;;5047696;28;20186;-66
2022/10/21 06:08:46;;;;;;;14.07;8.05;;;22.70;59.70;;;;;;5049095;28;20033;-65
2022/10/21 06:11:15;;;;;;;13.40;8.10;;;22.80;59.10;;;;;;5029524;28;20037;-65
2022/10/21 06:13:41;;;;;;;19.25;7.75;;;22.80;58.80;;;;;;5051721;28;20041;-65
2022/10/21 06:16:08;;;;;;;12.85;7.50;;;22.70;58.90;;;;;;5047866;28;20128;-65
2022/10/21 06:18:35;;;;;;;17.70;8.55;;;22.80;58.90;;;;;;5052028;28;20496;-66
2022/10/21 06:21:01;;;;;;;15.05;7.13;;;22.70;59.00;;;;;;5051989;28;20029;-65
2022/10/21 06:23:27;;;;;;;14.40;7.03;;;22.70;59.20;;;;;;5052002;28;20116;-65
2022/10/21 06:25:55;;;;;;;16.08;7.68;;;22.80;59.10;;;;;;5051683;28;20033;-65
2022/10/21 06:28:21;;;;;;;14.02;7.30;;;22.80;59.10;;;;;;5049086;28;20540;-65
2022/10/21 06:30:47;;;;;;;12.35;7.13;;;22.80;59.10;;;;;;5048615;28;20026;-65
2022/10/21 06:33:13;;;;;;;19.35;8.00;;;22.80;59.20;;;;;;5051862;28;20465;-65
2022/10/21 06:35:38;;;;;;;14.73;7.65;;;22.80;59.20;;;;;;5051670;28;20033;-65
2022/10/21 06:38:04;;;;;;;13.15;7.38;;;22.60;59.20;;;;;;5036029;28;20045;-65
2022/10/21 06:40:30;;;;;;;15.98;7.22;;;22.80;59.20;;;;;;5050637;28;20051;-65
2022/10/21 06:42:56;;;;;;;15.73;7.35;;;22.70;59.20;;;;;;5048632;28;20024;-65
2022/10/21 06:45:22;;;;;;;20.20;8.57;;;22.70;59.10;;;;;;5042898;28;20033;-65
2022/10/21 06:47:49;;;;;;;18.38;8.63;;;22.80;59.10;;;;;;5050861;28;20075;-63
2022/10/21 06:50:15;;;;;;;17.08;8.20;;;22.80;58.90;;;;;;5050981;28;20057;-64
2022/10/21 06:52:41;;;;;;;23.20;8.02;;;22.90;59.00;;;;;;5050651;28;20039;-65
2022/10/21 06:55:07;;;;;;;17.50;8.23;;;22.90;59.00;;;;;;5051477;28;20031;-65
2022/10/21 06:57:33;;;;;;;17.60;9.15;;;23.00;58.90;;;;;;5051028;28;20355;-66
2022/10/21 06:59:59;;;;;;;17.23;9.07;;;22.90;59.00;;;;;;5048534;28;20033;-66
2022/10/21 07:02:25;;;;;;;15.77;8.60;;;22.90;58.90;;;;;;5048401;28;20688;-66
2022/10/21 07:04:51;;;;;;;15.27;8.27;;;22.90;59.00;;;;;;5048488;28;20237;-65
2022/10/21 07:07:18;;;;;;;21.98;8.77;;;22.90;59.00;;;;;;5031613;28;20075;-65
2022/10/21 07:09:44;;;;;;;17.10;7.50;;;22.80;58.90;;;;;;5047704;28;20033;-65
2022/10/21 07:12:10;;;;;;;15.13;7.60;;;22.90;58.90;;;;;;5048315;28;20533;-65
2022/10/21 07:14:37;;;;;;;19.55;8.32;;;22.90;58.70;;;;;;5028375;28;20463;-66
2022/10/21 07:17:04;;;;;;;19.63;8.20;;;23.00;58.60;;;;;;5026869;28;20139;-65
2022/10/21 07:19:30;;;;;;;11.18;7.55;;;23.00;58.90;;;;;;5028430;28;20471;-65
2022/10/21 07:21:56;;;;;;;19.02;6.88;;;22.80;58.80;;;;;;5037609;28;20060;-65
2022/10/21 07:24:22;;;;;;;10.20;6.32;;;22.80;58.80;;;;;;5046674;28;20060;-66
2022/10/21 07:26:49;;;;;;;7.78;3.88;;;22.80;59.00;;;;;;5027725;28;20084;-66
2022/10/21 07:29:15;;;;;;;6.13;3.58;;;22.90;59.10;;;;;;5029113;28;20037;-68
2022/10/21 07:31:41;;;;;;;5.10;3.67;;;23.00;58.50;;;;;;5045851;28;20098;-67
2022/10/21 07:34:10;;;;;;;8.07;3.42;;;23.20;58.00;;;;;;5025897;28;20482;-67
2022/10/21 07:36:40;;;;;;;10.75;5.40;;;23.30;57.50;;;;;;5027797;28;20037;-67
2022/10/21 07:39:09;;;;;;;7.80;4.78;;;23.30;56.70;;;;;;5009986;28;20041;-66
2022/10/21 07:41:42;;;;;;;7.05;5.18;;;23.40;56.10;;;;;;5029748;28;20037;-63
2022/10/21 07:44:09;;;;;;;8.60;5.50;;;23.40;55.40;;;;;;5028368;28;20033;-65
2022/10/21 07:46:40;;;;;;;4.63;3.42;;;23.40;54.50;;;;;;5040438;28;20045;-65
2022/10/21 07:49:06;;;;;;;10.77;5.05;;;23.40;54.40;;;;;;5049533;28;20037;-65
2022/10/21 07:51:32;;;;;;;6.80;3.85;;;23.40;54.00;;;;;;5034934;28;20033;-63
2022/10/21 07:53:59;;;;;;;12.32;4.43;;;23.50;53.90;;;;;;5017966;28;20500;-65
2022/10/21 07:56:35;;;;;;;10.25;4.15;;;23.30;53.70;;;;;;5014811;28;20123;-63
2022/10/21 07:59:01;;;;;;;8.43;4.32;;;23.50;53.80;;;;;;5029289;28;20545;-65
2022/10/21 08:01:28;;;;;;;5.38;2.83;;;23.50;53.80;;;;;;5044913;28;20037;-65
2022/10/21 08:03:55;;;;;;;4.15;3.03;;;23.30;53.90;;;;;;5049411;28;20055;-65
2022/10/21 08:06:22;;;;;;;5.88;4.45;;;23.40;53.90;;;;;;5040206;28;20061;-63
2022/10/21 08:08:48;;;;;;;5.00;3.20;;;23.50;54.00;;;;;;5015681;28;20049;-65
2022/10/21 08:11:26;;;;;;;8.07;3.83;;;23.50;54.00;;;;;;4971846;28;20038;-65
2022/10/21 08:13:53;;;;;;;4.88;3.28;;;23.40;53.90;;;;;;4969032;28;20055;-65
2022/10/21 08:16:20;;;;;;;7.40;4.45;;;23.40;54.00;;;;;;4986192;28;20054;-63
2022/10/21 08:18:46;;;;;;;9.18;4.88;;;23.50;54.10;;;;;;4977917;28;20544;-65
2022/10/21 08:21:12;;;;;;;10.00;4.57;;;23.40;54.20;;;;;;4966572;28;20026;-65
2022/10/21 08:23:38;;;;;;;6.25;4.43;;;23.50;54.40;;;;;;4982476;28;20508;-65
2022/10/21 08:26:09;;;;;;;12.55;5.28;;;23.40;54.30;;;;;;4967180;28;20053;-66
2022/10/21 08:28:35;;;;;;;9.73;4.70;;;23.50;54.40;;;;;;4960449;28;20415;-63
2022/10/21 08:31:13;;;;;;;0.32;0.32;;;23.60;57.80;;;;;;4980070;28;20187;-66
2022/10/21 08:33:39;;;;;;;7.97;4.07;;;23.80;57.20;;;;;;4982627;28;20042;-65
2022/10/21 08:36:25;;;;;;;6.13;4.10;;;23.80;55.20;;;;;;4980696;28;20046;-66
2022/10/21 08:38:52;;;;;;;5.95;3.67;;;23.80;53.70;;;;;;4982314;28;20100;-64
2022/10/21 08:41:18;;;;;;;8.05;3.92;;;23.80;53.10;;;;;;4966367;28;20444;-62
2022/10/21 08:43:44;;;;;;;7.97;4.35;;;23.80;53.20;;;;;;4980785;28;20095;-65
2022/10/21 08:46:18;;;;;;;8.35;4.05;;;23.70;53.60;;;;;;4980687;28;20088;-63
2022/10/21 08:48:57;;;;;;;10.45;4.88;;;23.70;54.00;;;;;;5007767;28;20033;-65
2022/10/21 08:51:36;;;;;;;8.25;3.33;;;23.70;53.70;;;;;;5033339;28;20041;-66
2022/10/21 08:54:05;;;;;;;9.00;4.20;;;23.70;54.30;;;;;;5030488;28;20033;-66
2022/10/21 08:56:31;;;;;;;10.55;4.55;;;23.60;54.20;;;;;;5027243;28;20034;-66
2022/10/21 08:58:57;;;;;;;7.90;3.90;;;23.60;54.50;;;;;;5020625;28;20453;-66
2022/10/21 09:01:46;;;;;;;6.82;3.80;;;23.40;54.70;;;;;;5019462;28;20033;-66
2022/10/21 09:04:32;;;;;;;6.10;4.45;;;23.30;54.80;;;;;;5013668;28;20056;-66
2022/10/21 09:07:32;;;;;;;6.15;3.85;;;23.30;55.10;;;;;;5013768;28;20053;-66
2022/10/21 09:10:05;;;;;;;10.68;3.58;;;23.30;55.30;;;;;;5045096;28;20124;-66
2022/10/21 09:12:39;;;;;;;6.03;3.88;;;23.20;55.20;;;;;;5036853;28;20047;-66
2022/10/21 09:15:12;;;;;;;9.38;4.28;;;23.40;55.10;;;;;;5041987;28;20021;-66
2022/10/21 09:17:50;;;;;;;;;;;23.40;55.10;;;;;;5026623;28;20056;-64
2022/10/21 09:20:19;;;;;;;6.03;3.35;;;23.30;55.20;;;;;;5024357;28;19913;-64
2022/10/21 09:23:02;;;;;;;5.70;3.78;;;23.20;55.00;;;;;;5035775;28;20040;-64
2022/10/21 09:25:31;;;;;;;7.45;2.97;;;23.30;55.10;;;;;;5033271;28;20065;-64
2022/10/21 09:27:58;;;;;;;5.15;2.75;;;23.50;55.00;;;;;;5032963;28;20040;-65
2022/10/21 09:30:25;;;;;;;6.95;2.45;;;23.40;54.70;;;;;;5032996;28;20141;-65
2022/10/21 09:32:59;;;;;;;5.93;2.92;;;23.50;54.70;;;;;;5033845;28;20036;-64
2022/10/21 09:35:39;;;;;;;9.32;3.88;;;23.50;54.60;;;;;;5032942;28;20041;-64
2022/10/21 09:38:15;;;;;;;4.80;3.20;;;23.50;54.50;;;;;;5031499;28;20184;-64
2022/10/21 09:40:43;;;;;;;2.92;2.17;;;23.60;54.50;;;;;;5031874;28;20053;-65
2022/10/21 09:43:36;;;;;;;5.63;2.25;;;23.50;49.50;;;;;;5029952;28;20033;-66
2022/10/21 09:46:02;;;;;;;4.60;1.90;;;23.40;49.20;;;;;;4965982;28;20062;-65
2022/10/21 09:48:46;;;;;;;5.93;2.00;;;23.60;49.50;;;;;;4968946;28;20491;-64
2022/10/21 09:51:17;;;;;;;5.28;2.50;;;23.60;46.60;;;;;;4972361;28;20039;-66
2022/10/21 09:53:49;;;;;;;2.35;1.98;;;23.80;51.80;;;;;;4968824;28;20069;-65
2022/10/21 09:56:19;;;;;;;4.45;2.50;;;23.80;56.10;;;;;;4969766;28;20073;-65
2022/10/21 09:58:50;;;;;;;3.40;2.83;;;24.00;53.60;;;;;;4970656;28;20034;-66
2022/10/21 10:01:22;;;;;;;5.70;2.33;;;24.10;52.30;;;;;;4967680;28;20165;-66
2022/10/21 10:03:50;;;;;;;8.43;3.10;;;24.00;47.40;;;;;;4970089;28;20039;-66
2022/10/21 10:06:37;;;;;;;5.88;3.05;;;24.20;49.70;;;;;;4975583;28;20062;-68
2022/10/21 10:09:23;;;;;;;5.70;3.15;;;24.20;44.40;;;;;;4969028;28;20117;-64
2022/10/21 10:11:56;;;;;;;6.10;2.40;;;24.20;41.40;;;;;;4968995;28;20063;-65
2022/10/21 10:14:32;;;;;;;2.88;2.28;;;24.20;44.40;;;;;;4968890;28;20085;-66
2022/10/21 10:17:25;;;;;;;4.65;2.63;;;24.30;43.80;;;;;;4964813;28;20070;-64
2022/10/21 10:20:03;;;;;;;4.60;2.90;;;24.30;54.40;;;;;;4970735;28;20139;-62
2022/10/21 10:23:04;;;;;;;5.10;3.60;;;24.50;54.10;;;;;;4988571;28;20045;-65
2022/10/21 10:25:33;;;;;;;6.63;4.07;;;24.30;53.30;;;;;;5001643;28;20522;-65
2022/10/21 10:28:08;;;;;;;7.47;3.75;;;24.30;53.00;;;;;;5001282;28;20519;-64
2022/10/21 10:30:40;;;;;;;4.70;3.30;;;24.40;53.00;;;;;;4988807;28;20125;-65
2022/10/21 10:33:30;;;;;;;5.93;3.45;;;24.40;53.20;;;;;;4989684;28;20049;-65
2022/10/21 10:36:05;;;;;;;3.97;3.08;;;24.30;53.10;;;;;;5005904;28;20041;-65
2022/10/21 10:38:43;;;;;;;7.80;3.67;;;24.30;53.30;;;;;;4996033;28;20045;-65
2022/10/21 10:41:17;;;;;;;10.55;4.13;;;24.20;53.40;;;;;;4998650;28;20042;-63
2022/10/21 10:43:52;;;;;;;7.15;3.78;;;24.20;50.40;;;;;;4998168;28;20046;-64
2022/10/21 10:46:32;;;;;;;8.73;4.82;;;24.20;53.60;;;;;;5002334;28;20128;-65
2022/10/21 10:49:12;;;;;;;6.68;3.83;;;24.30;53.70;;;;;;5000504;28;20069;-65
2022/10/21 10:51:41;;;;;;;8.30;4.47;;;24.20;54.20;;;;;;4995857;28;20054;-65
2022/10/21 10:54:27;;;;;;;6.95;3.92;;;24.10;54.20;;;;;;5007029;28;20612;-64
2022/10/21 10:57:09;;;;;;;7.45;4.10;;;24.10;54.30;;;;;;5005096;28;20494;-65
2022/10/21 10:59:51;;;;;;;5.55;3.63;;;24.30;54.30;;;;;;4998838;28;20157;-65
2022/10/21 11:02:40;;;;;;;9.95;5.35;;;24.20;54.40;;;;;;5001164;28;20111;-65
2022/10/21 11:05:35;;;;;;;12.88;4.68;;;24.20;54.50;;;;;;5011881;28;20040;-65
2022/10/21 11:08:18;;;;;;;11.27;5.35;;;24.30;54.60;;;;;;4968609;28;20053;-65
2022/10/21 11:10:52;;;;;;;9.35;4.97;;;24.20;54.50;;;;;;4960024;28;20535;-65
2022/10/21 11:13:23;;;;;;;9.18;4.15;;;24.10;54.70;;;;;;4968914;28;20068;-65
2022/10/21 11:15:59;;;;;;;7.15;4.28;;;24.10;54.80;;;;;;4968687;28;20031;-65
2022/10/21 11:18:33;;;;;;;7.90;4.55;;;24.10;54.80;;;;;;4980343;28;20034;-65
2022/10/21 11:21:19;;;;;;;8.68;5.40;;;24.20;55.00;;;;;;4969277;28;20047;-64
2022/10/21 11:24:09;;;;;;;10.00;5.03;;;24.30;55.10;;;;;;4967268;28;20077;-64
2022/10/21 11:27:14;;;;;;;11.23;4.68;;;24.20;55.10;;;;;;4958354;28;20053;-65
2022/10/21 11:29:59;;;;;;;9.05;5.15;;;24.20;54.90;;;;;;4970545;28;20035;-65
2022/10/21 11:32:52;;;;;;;9.48;4.93;;;24.10;56.40;;;;;;4970654;28;20062;-66
2022/10/21 11:35:39;;;;;;;5.70;4.03;;;24.30;56.50;;;;;;4966212;28;20038;-65
2022/10/21 11:38:26;;;;;;;9.05;3.63;;;24.20;55.50;;;;;;4967728;28;20080;-65
2022/10/21 11:41:05;;;;;;;5.38;3.47;;;24.20;55.20;;;;;;4969611;28;20449;-65
2022/10/21 11:43:49;;;;;;;6.88;3.03;;;24.30;55.20;;;;;;4950561;28;20113;-65
2022/10/21 11:46:21;;;;;;;4.70;3.13;;;24.20;54.80;;;;;;5028028;28;20535;-65
2022/10/21 11:49:06;;;;;;;3.00;2.33;;;24.10;54.90;;;;;;5029764;28;20045;-63
2022/10/21 11:51:51;;;;;;;4.88;2.47;;;24.20;55.60;;;;;;5028282;28;20061;-64
2022/10/21 11:54:48;;;;;;;5.80;2.00;;;24.10;55.60;;;;;;5030326;28;20041;-64
2022/10/21 11:57:38;;;;;;;4.97;2.35;;;24.10;55.40;;;;;;5018051;28;20041;-66
2022/10/21 12:00:14;;;;;;;5.28;2.70;;;24.30;55.40;;;;;;5027553;28;20041;-65
2022/10/21 12:02:52;;;;;;;5.35;2.90;;;24.20;55.10;;;;;;5024251;28;20029;-65
2022/10/21 12:05:36;;;;;;;6.35;2.30;;;24.10;55.20;;;;;;5031209;28;20108;-65
2022/10/21 12:08:16;;;;;;;8.85;2.88;;;24.10;55.20;;;;;;5024089;28;20068;-65
2022/10/21 12:11:19;;;;;;;6.28;2.83;;;24.20;55.10;;;;;;5028966;28;20041;-64
2022/10/21 12:14:04;;;;;;;;;;;24.30;55.20;;;;;;5030971;28;20045;-65
2022/10/21 12:16:32;;;;;;;3.38;2.35;;;24.20;55.10;;;;;;5030031;28;19909;-65
2022/10/21 12:19:04;;;;;;;4.13;2.22;;;24.10;55.00;;;;;;5031165;28;20418;-65
2022/10/21 12:21:35;;;;;;;3.67;2.13;;;24.20;55.10;;;;;;5032322;28;20033;-65
2022/10/21 12:24:19;;;;;;;6.75;2.28;;;24.20;55.00;;;;;;5025756;28;20022;-66
2022/10/21 12:26:57;;;;;;;4.93;2.30;;;24.10;54.70;;;;;;5031078;28;20052;-66
2022/10/21 12:30:01;;;;;;;6.43;2.75;;;24.10;53.70;;;;;;5028094;28;20685;-65
2022/10/21 12:32:46;;;;;;;5.65;1.88;;;24.10;53.90;;;;;;4950396;29;20559;-65
2022/10/21 12:35:15;;;;;;;4.13;2.10;;;24.10;52.60;;;;;;4951690;29;20087;-66
2022/10/21 12:37:42;;;;;;;5.20;2.08;;;24.10;51.70;;;;;;4951994;29;20043;-66
2022/10/21 12:40:16;;;;;;;6.07;2.53;;;24.20;51.30;;;;;;4952945;29;20051;-65
2022/10/21 12:42:47;;;;;;;7.88;3.13;;;24.10;42.40;;;;;;4949916;29;20480;-66
2022/10/21 12:45:30;;;;;;;6.72;3.05;;;24.10;49.50;;;;;;4950130;29;20118;-67
2022/10/21 12:47:57;;;;;;;4.70;2.25;;;23.90;48.90;;;;;;4920701;29;20059;-66
2022/10/21 12:50:31;;;;;;;6.55;2.35;;;24.00;48.40;;;;;;4953285;29;20062;-65
2022/10/21 12:53:38;;;;;;;5.07;2.53;;;24.00;46.70;;;;;;4934269;29;20048;-66
2022/10/21 12:56:06;;;;;;;4.65;2.70;;;23.80;44.90;;;;;;4858879;29;20128;-65
2022/10/21 12:58:43;;;;;;;4.43;2.28;;;23.80;46.50;;;;;;4872753;29;20049;-67
2022/10/21 13:01:33;;;;;;;3.22;2.30;;;23.70;45.80;;;;;;4873027;29;20117;-65
2022/10/21 13:04:00;;;;;;;4.95;2.63;;;23.60;46.00;;;;;;4874710;29;20052;-65
2022/10/21 13:06:50;;;;;;;4.38;2.00;;;23.60;45.40;;;;;;4873355;29;20427;-65